Monee, IL (60449)

1:17 PM CDT on March 23, 2017 (GMT -0500)
Tuscan Hills Subdivision | | Change Station

Elev 774 ft 41.43 °N, 87.80 °W | Updated 4 seconds ago

Mostly Cloudy
Mostly Cloudy
45.3 °F
Feels Like 41 °F
N
7.6
Wind Variable Wind from SE
Gusts 9.8 mph

Today
High -- | Low -- °F
--% Chance of Precip.
Yesterday
High -- | Low -- °F
Precip. -- in
Pressure 30.33 in
Visibility 10.0 miles
Clouds Clear
Windchill 41 °F
Dew Point 24 °F
Humidity 43%
Rainfall 0.00 in
Snow Depth Not available.
6:48 AM 7:06 PM
Waning Crescent, 21% visible
METAR KIGQ 231755Z AUTO 14010KT 10SM CLR 07/M02 A3033 RMK AO2 T00721022 10072 21007
Pressure 30.33 in
Visibility 10.0 miles
Clouds Clear
Windchill 41 °F
Dew Point 24 °F
Humidity 43%
Rainfall 0.00 in
Snow Depth Not available.
6:48 AM 7:06 PM
Waning Crescent, 21% visible
METAR KIGQ 231755Z AUTO 14010KT 10SM CLR 07/M02 A3033 RMK AO2 T00721022 10072 21007

Get Severe Weather Alerts

Thanks for signing up!

Be on the lookout for a verification email in your inbox.

You'll start receiving the daily forecast at 8 AM.

×

10-Day Weather Forecast

Almanac

Astronomy

Mar. 23, 2017 Rise Set
Actual Time
Civil Twilight
Nautical Twilight
Astronomical Twilight
Moon
Length of Visible Light
Length of Day
Tomorrow will be .
, % of the Moon is Illuminated

Today's Extremes

State Highs State Lows

Community

WunderPhotos

Upload Photos

1,962,540 photos uploaded!

WunderBlog® & News

Nearby

Air Quality

  Air Quality AQ Index Pollutant
Not available.

Snow Depth

Station Depth Elevation

Earthquake Activity

City Distance Mag. Time & Date
Minimum magnitude displayed is 2.5.

Earthquake Activity

City Distance Mag. Time & Date
Minimum magnitude displayed is 2.5.

Coastal Water Temperatures

Place Temperature

Stations

Nearby Weather Stations

Station Location Temp. Windchill Dew Point Humidity Wind Precip. Elev Updated Type
                   

Watches & Warnings

There are currently no watches in effect.